Time;durP1;ratioP1;P1;durP2;ratioP2;P2;SDS_P1;SDS_P2;PMS_P1;PMS_P2;Temp;Humidity;BMP_temperature;BMP_pressure;BME280_temperature;BME280_humidity;BME280_pressure;Samples;Min_cycle;Max_cycle;Signal;HPM_P1;HPM_P2
2023/01/22 00:01:52;;;;;;;35.57;23.43;;;;;;;-1.13;100.00;103232.53;5252718;28;20112;-84
2023/01/22 00:04:23;;;;;;;35.77;23.87;;;;;;;-1.01;100.00;103250.00;5251111;28;20068;-88
2023/01/22 00:06:55;;;;;;;36.93;24.43;;;;;;;-0.96;100.00;103255.28;5250920;28;20036;-84
2023/01/22 00:09:26;;;;;;;38.27;24.67;;;;;;;-1.01;100.00;103235.44;5252536;28;20039;-81
2023/01/22 00:11:57;;;;;;;32.63;23.47;;;;;;;-0.99;100.00;103249.22;5251294;28;20037;-89
2023/01/22 00:14:29;;;;;;;37.37;25.17;;;;;;;-0.99;100.00;103250.91;5254463;28;20028;-90
2023/01/22 00:17:00;;;;;;;36.77;24.90;;;;;;;-1.01;100.00;103244.84;5254620;28;20025;-86
2023/01/22 00:19:31;;;;;;;36.03;23.93;;;;;;;-0.96;100.00;103248.41;5251847;28;20029;-87
2023/01/22 00:22:03;;;;;;;36.80;23.83;;;;;;;-1.09;100.00;103252.38;5254051;28;20063;-79
2023/01/22 00:24:34;;;;;;;32.47;23.87;;;;;;;-1.10;100.00;103251.47;5252273;28;20427;-81
2023/01/22 00:27:05;;;;;;;36.70;24.87;;;;;;;-0.98;100.00;103244.97;5252768;28;20120;-83
2023/01/22 00:29:36;;;;;;;33.90;23.57;;;;;;;-1.11;100.00;103230.88;5254126;28;20021;-77
2023/01/22 00:32:08;;;;;;;37.13;25.70;;;;;;;-1.01;100.00;103245.72;5252883;28;20535;-81
2023/01/22 00:34:39;;;;;;;36.50;24.83;;;;;;;-1.03;100.00;103247.38;5253889;28;20537;-78
2023/01/22 00:37:10;;;;;;;34.90;23.30;;;;;;;-1.12;100.00;103232.56;5253861;28;20029;-80
2023/01/22 00:39:41;;;;;;;36.57;24.93;;;;;;;-1.22;100.00;103218.59;5252986;28;20040;-79
2023/01/22 00:42:13;;;;;;;37.13;25.50;;;;;;;-1.11;100.00;103212.88;5252678;28;20028;-79
2023/01/22 00:44:44;;;;;;;36.93;24.57;;;;;;;-1.01;100.00;103231.97;5252459;28;20025;-80
2023/01/22 00:47:15;;;;;;;37.70;25.93;;;;;;;-1.20;100.00;103228.06;5251569;28;20053;-82
2023/01/22 00:49:46;;;;;;;36.10;25.20;;;;;;;-1.40;100.00;103216.38;5253892;28;20060;-73
2023/01/22 00:52:18;;;;;;;37.10;25.53;;;;;;;-1.26;100.00;103229.63;5252306;28;20029;-80
2023/01/22 00:54:49;;;;;;;33.83;25.57;;;;;;;-1.07;100.00;103227.56;5253500;28;20021;-78
2023/01/22 00:57:20;;;;;;;35.37;26.13;;;;;;;-1.04;100.00;103229.34;5251212;28;20021;-80
2023/01/22 00:59:52;;;;;;;36.53;25.63;;;;;;;-1.06;100.00;103224.16;5251874;28;20108;-83
2023/01/22 01:02:23;;;;;;;36.10;25.07;;;;;;;-1.15;100.00;103223.91;5250672;28;20029;-83
2023/01/22 01:04:55;;;;;;;32.83;24.17;;;;;;;-1.25;100.00;103223.66;5253642;28;20017;-84
2023/01/22 01:07:27;;;;;;;33.43;23.47;;;;;;;-1.41;100.00;103208.59;5251256;28;20561;-75
2023/01/22 01:09:58;;;;;;;35.40;26.27;;;;;;;-1.15;100.00;103217.06;5243293;28;20029;-85
2023/01/22 01:13:29;;;;;;;33.37;25.43;;;;;;;-150.27;100.00;61272.81;5231388;28;20041;-87
2023/01/22 01:16:52;;;;;;;33.57;22.70;;;;;;;-150.27;100.00;80345.94;5251943;28;20090;-79
2023/01/22 01:20:22;;;;;;;33.83;23.70;;;;;;;-150.27;100.00;61272.81;5251259;28;20095;-74
2023/01/22 01:23:53;;;;;;;38.27;25.37;;;;;;;-150.27;100.00;61272.81;5253144;28;20454;-88
2023/01/22 01:27:23;;;;;;;35.60;23.70;;;;;;;-150.27;100.00;61272.81;5256157;28;20021;-84
2023/01/22 01:30:53;;;;;;;35.50;25.40;;;;;;;-150.27;100.00;61272.81;5255835;28;20055;-88
2023/01/22 01:34:22;;;;;;;35.27;25.33;;;;;;;-150.27;100.00;61272.81;5255895;28;20052;-76
2023/01/22 01:37:52;;;;;;;35.40;24.23;;;;;;;-150.27;100.00;61272.81;5236897;28;20033;-88
2023/01/22 01:41:24;;;;;;;37.43;23.60;;;;;;;-150.27;100.00;61272.81;5234804;28;20033;-85
2023/01/22 01:45:20;;;;;;;31.13;23.20;;;;;;;-150.27;100.00;61272.81;5236060;28;20025;-80
2023/01/22 01:48:54;;;;;;;31.80;22.63;;;;;;;-150.27;100.00;61272.81;5236476;28;20037;-76
2023/01/22 01:52:29;;;;;;;32.43;22.50;;;;;;;-150.27;100.00;61272.81;5251945;28;20025;-85
2023/01/22 01:56:01;;;;;;;30.37;22.57;;;;;;;-150.27;100.00;61272.81;5256252;28;20765;-81
2023/01/22 01:59:32;;;;;;;30.47;22.27;;;;;;;-150.27;100.00;61272.81;5255420;28;20352;-79
2023/01/22 02:03:02;;;;;;;29.73;21.67;;;;;;;-150.27;100.00;61272.81;5254550;28;20090;-81
2023/01/22 02:06:34;;;;;;;31.50;22.30;;;;;;;-150.27;100.00;61272.81;5255510;28;20021;-77
2023/01/22 02:09:06;;;;;;;29.57;22.50;;;;;;;-1.50;100.00;103150.94;5255084;28;20274;-79
2023/01/22 02:11:39;;;;;;;31.33;23.03;;;;;;;-1.63;100.00;103161.72;5254996;28;20045;-77
2023/01/22 02:14:17;;;;;;;31.73;22.30;;;;;;;-1.39;100.00;103164.13;5255038;28;20029;-82
2023/01/22 02:17:06;;;;;;;30.20;22.67;;;;;;;-1.42;100.00;103148.59;5320969;22;20048;-86
2023/01/22 02:19:38;;;;;;;34.10;21.87;;;;;;;-1.34;100.00;103154.81;5265301;28;20044;-87
2023/01/22 02:22:18;;;;;;;31.63;21.80;;;;;;;-1.63;100.00;103156.56;5276584;28;20028;-75
2023/01/22 02:24:50;;;;;;;27.50;20.73;;;;;;;-1.72;100.00;103146.91;5267576;28;20120;-86
2023/01/22 02:27:22;;;;;;;30.73;21.80;;;;;;;-1.44;100.00;103145.13;5274809;28;20154;-88
2023/01/22 02:29:53;;;;;;;26.53;20.43;;;;;;;-1.43;100.00;103159.69;5276619;28;20021;-88
2023/01/22 02:32:24;;;;;;;31.37;21.00;;;;;;;-1.47;100.00;103142.47;5276473;28;20028;-84
2023/01/22 02:34:55;;;;;;;28.23;21.47;;;;;;;-1.39;100.00;103151.25;5276653;28;20024;-87
2023/01/22 02:37:27;;;;;;;27.77;20.87;;;;;;;-1.36;100.00;103156.47;5275608;28;20459;-87
2023/01/22 02:39:58;;;;;;;28.70;20.00;;;;;;;-1.44;100.00;103149.38;5276622;28;20068;-88
2023/01/22 02:42:29;;;;;;;26.90;20.30;;;;;;;-1.56;100.00;103158.50;5275554;28;20069;-78
2023/01/22 02:45:59;;;;;;;27.37;20.73;;;;;;;-150.27;100.00;61272.81;5275127;28;20454;-84
2023/01/22 02:49:29;;;;;;;25.97;19.63;;;;;;;-150.27;100.00;61272.81;5276263;28;20102;-74
2023/01/22 02:52:59;;;;;;;30.60;21.20;;;;;;;-150.27;100.00;61272.81;5256247;28;20040;-88
2023/01/22 02:56:29;;;;;;;31.13;21.37;;;;;;;-150.27;100.00;61272.81;5255281;28;20474;-83
2023/01/22 02:59:59;;;;;;;24.53;17.73;;;;;;;-150.27;100.00;61272.81;5268364;28;20321;-88
2023/01/22 03:03:29;;;;;;;27.17;19.13;;;;;;;-150.27;100.00;61272.81;5275426;28;20141;-84
2023/01/22 03:06:59;;;;;;;27.00;19.17;;;;;;;-150.27;100.00;61272.81;5276459;28;20033;-83
2023/01/22 03:10:29;;;;;;;28.70;19.83;;;;;;;-150.27;100.00;61272.81;5276252;28;20028;-84
2023/01/22 03:21:42;;;;;;;24.10;16.67;;;;;;;-150.27;100.00;61272.81;5276104;28;20032;-82
2023/01/22 03:25:12;;;;;;;26.17;18.80;;;;;;;-150.27;100.00;61272.81;5276426;28;20016;-80
2023/01/22 03:28:42;;;;;;;26.37;19.10;;;;;;;-150.27;100.00;61272.81;5275829;28;20471;-78
2023/01/22 03:32:12;;;;;;;27.60;18.77;;;;;;;-150.27;100.00;61272.81;5275182;28;20336;-78
2023/01/22 03:35:42;;;;;;;24.93;18.67;;;;;;;-150.27;100.00;61272.81;5272189;28;20025;-86
2023/01/22 03:39:13;;;;;;;25.53;19.63;;;;;;;-150.27;100.00;61272.81;5273648;28;20153;-80
2023/01/22 03:42:42;;;;;;;26.37;18.63;;;;;;;-150.27;100.00;61272.81;5270870;28;20042;-85
2023/01/22 03:46:13;;;;;;;26.93;18.43;;;;;;;-150.27;100.00;61272.81;5271930;28;20027;-82
2023/01/22 03:49:47;;;;;;;25.60;18.80;;;;;;;-150.27;100.00;61272.81;5268936;28;20149;-81
2023/01/22 03:53:17;;;;;;;24.70;18.13;;;;;;;-150.27;100.00;61272.81;5271115;28;20032;-82
2023/01/22 03:57:01;;;;;;;24.83;16.93;;;;;;;-150.27;100.00;61272.81;5270869;28;20067;-79
2023/01/22 04:00:31;;;;;;;24.53;18.60;;;;;;;-150.27;100.00;61272.81;5271101;28;20028;-85
2023/01/22 04:04:01;;;;;;;26.50;18.87;;;;;;;-150.27;100.00;61272.81;5272016;28;20343;-79
2023/01/22 04:07:31;;;;;;;27.57;18.67;;;;;;;-150.27;100.00;61272.81;5270507;28;20057;-82
2023/01/22 04:11:01;;;;;;;24.83;17.23;;;;;;;-150.27;100.00;61272.81;5271733;28;20028;-78
2023/01/22 04:14:32;;;;;;;27.10;20.07;;;;;;;-150.27;100.00;61272.81;5266217;28;20021;-73
2023/01/22 04:18:02;;;;;;;26.13;18.13;;;;;;;-150.27;100.00;61272.81;5251064;28;20049;-76
2023/01/22 04:21:32;;;;;;;23.47;18.33;;;;;;;-150.27;100.00;61272.81;5250177;28;20492;-86
2023/01/22 04:25:02;;;;;;;24.00;18.20;;;;;;;-150.27;100.00;61272.81;5262893;28;20274;-76
2023/01/22 04:28:31;;;;;;;25.37;17.60;;;;;;;-150.27;100.00;61272.81;5269997;28;20024;-73
2023/01/22 04:32:01;;;;;;;24.13;17.80;;;;;;;-150.27;100.00;61272.81;5271655;28;20024;-79
2023/01/22 04:34:33;;;;;;;24.40;17.23;;;;;;;-1.22;100.00;103112.25;5270564;28;20024;-83
2023/01/22 04:37:04;;;;;;;23.47;18.37;;;;;;;-1.35;100.00;103091.41;5271869;28;20475;-84
2023/01/22 04:39:35;;;;;;;36.43;20.77;;;;;;;-1.32;100.00;103112.84;5272444;28;20360;-79
2023/01/22 04:42:09;;;;;;;22.57;17.87;;;;;;;-1.17;100.00;103114.97;5250464;28;20021;-72
2023/01/22 04:44:40;;;;;;;23.23;18.35;;;;;;;-1.43;100.00;103121.13;5249669;28;20083;-79
2023/01/22 04:47:12;;;;;;;22.40;16.50;;;;;;;-1.41;100.00;103093.78;5250989;28;20387;-78
2023/01/22 04:49:53;;;;;;;21.33;17.67;;;;;;;-1.41;100.00;103093.78;5250757;28;20309;-79
2023/01/22 04:52:25;;;;;;;21.47;17.13;;;;;;;-1.35;100.00;103100.78;5251397;28;20438;-82
2023/01/22 04:54:56;;;;;;;27.60;18.57;;;;;;;-1.27;100.00;103104.44;5250402;28;20132;-86
2023/01/22 04:57:27;;;;;;;23.60;17.70;;;;;;;-1.22;100.00;103102.84;5258445;28;20103;-88
2023/01/22 04:59:59;;;;;;;23.87;18.00;;;;;;;-1.24;100.00;103099.38;5271809;28;20021;-87
2023/01/22 05:02:30;;;;;;;23.03;17.60;;;;;;;-1.38;100.00;103087.88;5271106;28;20121;-75
2023/01/22 05:05:02;;;;;;;25.57;17.67;;;;;;;-1.25;100.00;103096.75;5271495;28;20028;-85
2023/01/22 05:07:34;;;;;;;25.73;18.20;;;;;;;-1.18;100.00;103103.81;5272103;28;20052;-80
2023/01/22 05:10:06;;;;;;;20.80;16.30;;;;;;;-1.43;100.00;103100.56;5268791;28;20052;-80
2023/01/22 05:12:37;;;;;;;24.83;16.67;;;;;;;-1.33;100.00;103088.84;5271391;28;20071;-81
2023/01/22 05:15:09;;;;;;;22.43;17.23;;;;;;;-1.28;100.00;103091.53;5270200;28;20028;-79
2023/01/22 05:17:41;;;;;;;22.53;16.90;;;;;;;-1.32;100.00;103106.03;5271223;28;20125;-79
2023/01/22 05:20:12;;;;;;;24.77;16.43;;;;;;;-1.40;100.00;103080.13;5272037;28;20039;-82
2023/01/22 05:22:43;;;;;;;20.93;16.20;;;;;;;-1.27;100.00;103104.44;5271931;28;20032;-80
2023/01/22 05:25:15;;;;;;;21.43;17.03;;;;;;;-1.29;100.00;103089.81;5270680;28;20073;-84
2023/01/22 05:27:46;;;;;;;27.03;16.67;;;;;;;-1.40;100.00;103110.97;5271615;28;20021;-83
2023/01/22 05:30:17;;;;;;;22.90;16.23;;;;;;;-1.49;100.00;103096.16;5271046;28;20025;-84
2023/01/22 05:32:48;;;;;;;22.40;17.17;;;;;;;-1.44;100.00;103110.81;5271485;28;20108;-86
2023/01/22 05:35:21;;;;;;;20.80;15.10;;;;;;;-1.38;100.00;103111.00;5273889;28;20024;-85
2023/01/22 05:37:52;;;;;;;25.20;16.70;;;;;;;-1.27;100.00;103107.00;5273732;28;20059;-85
2023/01/22 05:40:23;;;;;;;21.57;17.43;;;;;;;-1.29;100.00;103126.66;5273201;28;20068;-86
2023/01/22 05:42:55;;;;;;;19.77;15.80;;;;;;;-1.40;100.00;103112.66;5272226;28;20025;-72
2023/01/22 05:45:26;;;;;;;24.93;17.27;;;;;;;-1.44;100.00;103121.09;5273772;28;20055;-83
2023/01/22 05:48:00;;;;;;;21.60;15.70;;;;;;;-1.26;100.00;103131.03;5273907;28;20086;-85
2023/01/22 05:50:32;;;;;;;24.40;18.50;;;;;;;-1.23;100.00;103134.56;5272918;28;20467;-87
2023/01/22 05:53:03;;;;;;;22.77;17.47;;;;;;;-1.27;100.00;103125.00;5272434;28;20017;-77
2023/01/22 05:55:34;;;;;;;21.80;16.93;;;;;;;-1.25;100.00;103138.78;5273078;28;20082;-83
2023/01/22 05:58:06;;;;;;;20.80;16.73;;;;;;;-1.42;100.00;103124.59;5272705;28;20103;-81
2023/01/22 06:00:38;;;;;;;24.10;18.77;;;;;;;-1.27;100.00;103140.44;5273843;28;20187;-82
2023/01/22 06:03:09;;;;;;;23.00;17.53;;;;;;;-1.23;100.00;103139.72;5271869;28;20112;-83
2023/01/22 06:05:40;;;;;;;23.77;16.77;;;;;;;-1.17;100.00;103130.41;5272818;28;20382;-77
2023/01/22 06:08:12;;;;;;;22.93;16.50;;;;;;;-1.20;100.00;103135.47;5273474;28;20391;-77
2023/01/22 06:10:44;;;;;;;21.73;17.27;;;;;;;-1.13;100.00;103142.50;5272437;28;20032;-77
2023/01/22 06:13:15;;;;;;;25.07;17.47;;;;;;;-1.10;100.00;103127.19;5277599;28;20020;-77
2023/01/22 06:15:46;;;;;;;22.93;18.10;;;;;;;-1.07;100.00;103132.41;5277130;28;20036;-77
2023/01/22 06:18:21;;;;;;;22.77;16.73;;;;;;;-1.10;100.00;103129.75;5276813;28;20546;-80
2023/01/22 06:20:57;;;;;;;19.53;16.27;;;;;;;-1.15;100.00;103136.47;5277373;28;20105;-72
2023/01/22 06:23:28;;;;;;;22.80;15.70;;;;;;;-1.20;100.00;103120.91;5276696;28;20029;-87
2023/01/22 06:26:01;;;;;;;24.87;17.73;;;;;;;-1.12;100.00;103131.41;5276237;28;20031;-84
2023/01/22 06:28:32;;;;;;;25.03;18.77;;;;;;;-1.08;100.00;103125.50;5276178;28;20067;-77
2023/01/22 06:31:04;;;;;;;25.00;18.03;;;;;;;-1.03;100.00;103133.34;5276654;28;20060;-84
2023/01/22 06:33:36;;;;;;;21.67;16.47;;;;;;;-1.01;100.00;103137.69;5277403;28;20112;-81
2023/01/22 06:36:08;;;;;;;23.40;17.10;;;;;;;-1.03;100.00;103143.63;5276549;28;20064;-80
2023/01/22 06:38:39;;;;;;;21.20;15.83;;;;;;;-1.03;100.00;103134.19;5277072;28;20068;-76
2023/01/22 06:41:10;;;;;;;21.00;16.60;;;;;;;-1.06;100.00;103128.09;5275900;28;20024;-77
2023/01/22 06:44:40;;;;;;;22.60;16.77;;;;;;;-150.27;100.00;61272.81;5276431;28;20021;-78
2023/01/22 06:48:10;;;;;;;20.73;16.97;;;;;;;-150.27;100.00;61272.81;5277049;28;20025;-84
2023/01/22 06:51:40;;;;;;;23.47;18.67;;;;;;;-150.27;100.00;61272.81;5276899;28;20033;-77
2023/01/22 06:55:10;;;;;;;22.30;16.57;;;;;;;-150.27;100.00;61272.81;5276002;28;20585;-88
2023/01/22 06:58:40;;;;;;;21.43;16.30;;;;;;;-150.27;100.00;61272.81;5276432;28;20485;-78
2023/01/22 07:02:17;;;;;;;23.97;16.37;;;;;;;-150.27;100.00;61272.81;5276421;28;20070;-73
2023/01/22 07:05:53;;;;;;;25.25;16.77;;;;;;;-150.27;100.00;61272.81;5275872;28;20020;-86
2023/01/22 07:09:24;;;;;;;23.52;16.92;;;;;;;-150.27;100.00;61272.81;5274757;28;20120;-85
2023/01/22 07:12:54;;;;;;;20.47;15.37;;;;;;;-150.27;100.00;61272.81;5275062;28;20028;-79
2023/01/22 07:16:24;;;;;;;21.50;15.47;;;;;;;-150.27;100.00;61272.81;5275730;28;20496;-86
2023/01/22 07:19:54;;;;;;;26.00;18.37;;;;;;;-150.27;100.00;61272.81;5275111;28;20094;-75
2023/01/22 07:23:23;;;;;;;21.60;16.60;;;;;;;-150.27;100.00;61272.81;5274376;28;20058;-86
2023/01/22 07:26:53;;;;;;;18.60;15.77;;;;;;;-150.27;100.00;61272.81;5274497;28;20440;-78
2023/01/22 07:30:23;;;;;;;23.23;17.00;;;;;;;-150.27;100.00;61272.81;5275291;28;20029;-88
2023/01/22 07:33:58;;;;;;;21.70;16.27;;;;;;;-150.27;100.00;61272.81;5255183;28;20152;-82
2023/01/22 07:37:28;;;;;;;22.37;16.43;;;;;;;-150.27;100.00;61272.81;5254659;28;20029;-74
2023/01/22 07:41:04;;;;;;;22.87;18.23;;;;;;;-150.27;100.00;61272.81;5268846;28;20362;-86
2023/01/22 07:44:35;;;;;;;20.20;16.30;;;;;;;-150.27;100.00;61272.81;5274753;28;20112;-85
2023/01/22 07:48:09;;;;;;;22.03;16.73;;;;;;;-150.27;100.00;61272.81;5275092;28;20115;-78
2023/01/22 07:51:39;;;;;;;20.23;15.43;;;;;;;-150.27;100.00;61272.81;5273908;28;20105;-73
2023/01/22 07:55:09;;;;;;;19.33;16.23;;;;;;;-150.27;100.00;61272.81;5274126;28;20043;-83
2023/01/22 07:58:40;;;;;;;30.17;18.40;;;;;;;-150.27;100.00;61272.81;5275227;28;20074;-84
2023/01/22 08:02:11;;;;;;;22.93;17.20;;;;;;;-150.27;100.00;61272.81;5273438;28;20081;-84
2023/01/22 08:05:41;;;;;;;22.87;16.87;;;;;;;-150.27;100.00;61272.81;5274359;28;20032;-73
2023/01/22 08:09:12;;;;;;;24.23;16.33;;;;;;;-150.27;100.00;61272.81;5274883;28;20033;-88
2023/01/22 08:12:42;;;;;;;20.00;15.87;;;;;;;-150.27;100.00;61272.81;5274897;28;20032;-79
2023/01/22 08:16:12;;;;;;;19.83;14.33;;;;;;;-150.27;100.00;61272.81;5275104;28;20032;-88
2023/01/22 08:19:42;;;;;;;20.20;14.87;;;;;;;-150.27;100.00;61272.81;5274742;28;20754;-82
2023/01/22 08:23:12;;;;;;;21.00;14.13;;;;;;;-150.27;100.00;61272.81;5274393;28;20033;-88
2023/01/22 08:26:44;;;;;;;20.03;15.00;;;;;;;-150.27;100.00;61272.81;5273895;28;20036;-82
2023/01/22 08:30:14;;;;;;;18.33;15.23;;;;;;;-150.27;100.00;61272.81;5275003;28;20056;-84
2023/01/22 08:33:44;;;;;;;20.90;14.57;;;;;;;-150.27;100.00;61272.81;5251994;28;20029;-86
2023/01/22 08:37:14;;;;;;;19.60;14.90;;;;;;;-150.27;100.00;61272.81;5253170;28;20394;-80
2023/01/22 08:40:47;;;;;;;18.63;14.10;;;;;;;-150.27;100.00;61272.81;5271869;28;20037;-87
2023/01/22 08:44:17;;;;;;;19.97;14.30;;;;;;;-150.27;100.00;61272.81;5265202;28;20040;-79
2023/01/22 08:47:46;;;;;;;19.87;14.77;;;;;;;-150.27;100.00;61272.81;5274354;28;20461;-84
2023/01/22 08:51:17;;;;;;;17.83;14.47;;;;;;;-150.27;100.00;61272.81;5272937;28;20040;-80
2023/01/22 08:54:47;;;;;;;16.50;13.27;;;;;;;-150.27;100.00;61272.81;5273474;28;20035;-88
2023/01/22 08:58:20;;;;;;;16.97;13.73;;;;;;;-150.27;100.00;61272.81;5271844;28;20647;-86
2023/01/22 09:01:51;;;;;;;16.67;12.50;;;;;;;-150.27;100.00;61272.81;5274293;28;20052;-79
2023/01/22 09:05:20;;;;;;;19.40;13.40;;;;;;;-150.27;100.00;61272.81;5274243;28;20113;-73
2023/01/22 09:08:50;;;;;;;17.00;13.03;;;;;;;-150.27;100.00;61272.81;5273881;28;20032;-80
2023/01/22 09:12:20;;;;;;;16.27;12.37;;;;;;;-150.27;100.00;61272.81;5272063;28;20024;-86
2023/01/22 09:15:50;;;;;;;14.87;12.23;;;;;;;-150.27;100.00;61272.81;5272472;28;20082;-78
2023/01/22 09:19:19;;;;;;;17.70;12.20;;;;;;;-150.27;100.00;61272.81;5272785;28;20097;-85
2023/01/22 09:22:49;;;;;;;16.97;12.17;;;;;;;-150.27;100.00;61272.81;5273821;28;20131;-75
2023/01/22 09:26:19;;;;;;;17.63;11.93;;;;;;;-150.27;100.00;61272.81;5273102;28;20041;-87
2023/01/22 09:29:49;;;;;;;16.27;11.77;;;;;;;-150.27;100.00;61272.81;5270554;28;20051;-76
2023/01/22 09:33:19;;;;;;;19.70;13.17;;;;;;;-150.27;100.00;61272.81;5272784;28;20070;-80
2023/01/22 09:36:49;;;;;;;17.50;11.93;;;;;;;-150.27;100.00;61272.81;5272514;28;20672;-77
2023/01/22 09:40:21;;;;;;;14.43;11.80;;;;;;;-150.27;100.00;61272.81;5270184;28;20477;-81
2023/01/22 09:44:17;;;;;;;17.83;11.77;;;;;;;-150.27;100.00;61272.81;5259361;28;20108;-78
2023/01/22 09:47:53;;;;;;;17.40;12.93;;;;;;;-150.27;100.00;61272.81;5266587;28;20052;-82
2023/01/22 09:51:25;;;;;;;19.20;13.83;;;;;;;-150.27;100.00;61272.81;5274956;28;20032;-80
2023/01/22 09:54:56;;;;;;;17.73;12.00;;;;;;;-150.27;100.00;61272.81;5275684;28;20035;-80
2023/01/22 09:58:26;;;;;;;13.70;11.47;;;;;;;-150.27;100.00;61272.81;5276650;28;20036;-78
2023/01/22 10:02:11;;;;;;;15.27;11.27;;;;;;;-150.27;100.00;61272.81;5272632;28;20081;-76
2023/01/22 10:05:48;;;;;;;18.20;12.57;;;;;;;-150.27;100.00;61272.81;5273911;28;20068;-83
2023/01/22 10:09:23;;;;;;;15.20;11.77;;;;;;;-150.27;100.00;61272.81;5276865;28;20108;-83
2023/01/22 10:13:05;;;;;;;16.50;12.20;;;;;;;-150.27;100.00;61272.81;5276776;28;20346;-81
2023/01/22 10:16:37;;;;;;;20.13;13.17;;;;;;;-150.27;100.00;61272.81;5256238;28;20060;-72
2023/01/22 10:20:21;;;;;;;15.93;12.50;;;;;;;-150.27;100.00;61272.81;5272556;28;20037;-76
2023/01/22 10:23:54;;;;;;;18.63;13.83;;;;;;;-150.27;100.00;61272.81;5256844;28;20112;-83
2023/01/22 10:27:38;;;;;;;15.90;12.37;;;;;;;-150.27;100.00;61272.81;5255578;28;20059;-76
2023/01/22 10:31:22;;;;;;;16.43;11.63;;;;;;;-150.27;100.00;61272.81;5276269;28;20032;-77
2023/01/22 10:35:02;;;;;;;16.60;11.83;;;;;;;-150.27;100.00;61272.81;5274880;28;20111;-81
2023/01/22 10:38:46;;;;;;;16.70;12.33;;;;;;;-150.27;100.00;61272.81;5272495;28;20523;-78
2023/01/22 10:41:19;;;;;;;13.70;11.23;;;;;;;-0.08;100.00;103200.00;5273899;28;20040;-83
2023/01/22 10:43:51;;;;;;;18.50;12.30;;;;;;;-0.14;100.00;103202.44;5276636;28;20112;-82
2023/01/22 10:46:25;;;;;;;16.67;12.93;;;;;;;-0.14;100.00;103205.03;5275582;28;20115;-83
2023/01/22 10:49:07;;;;;;;18.13;12.90;;;;;;;-0.10;100.00;103211.97;5276252;28;20051;-76
2023/01/22 10:51:41;;;;;;;20.43;13.30;;;;;;;-0.04;100.00;103206.97;5271825;28;20446;-84
2023/01/22 10:54:21;;;;;;;16.45;12.30;;;;;;;0.05;100.00;103208.91;5273861;28;20035;-76
2023/01/22 10:57:18;;;;;;;16.47;12.53;;;;;;;0.05;100.00;103215.75;5275824;28;20031;-77
2023/01/22 11:00:04;;;;;;;15.53;12.60;;;;;;;-0.05;100.00;103215.53;5276094;28;20028;-80
2023/01/22 11:02:41;;;;;;;14.30;11.67;;;;;;;-0.02;100.00;103214.75;5275064;28;20451;-79
2023/01/22 11:05:20;;;;;;;15.40;12.37;;;;;;;0.06;100.00;103223.50;5275775;28;20054;-77
2023/01/22 11:08:04;;;;;;;14.63;12.40;;;;;;;0.10;100.00;103202.16;5276281;28;20485;-81
2023/01/22 11:10:45;;;;;;;16.83;12.57;;;;;;;0.08;100.00;103208.97;5276580;28;20525;-83
2023/01/22 11:13:31;;;;;;;13.67;11.97;;;;;;;0.11;100.00;103190.09;5276018;28;20024;-86
2023/01/22 11:16:11;;;;;;;18.33;14.60;;;;;;;0.15;100.00;103197.09;5276354;28;20032;-74
2023/01/22 11:18:53;;;;;;;17.50;13.63;;;;;;;0.12;100.00;103191.88;5275444;28;20097;-77
2023/01/22 11:21:28;;;;;;;16.27;12.03;;;;;;;0.10;100.00;103189.25;5275793;28;20029;-77
2023/01/22 11:24:03;;;;;;;16.70;12.73;;;;;;;0.14;100.00;103190.16;5272257;28;20505;-80
2023/01/22 11:26:43;;;;;;;18.10;12.90;;;;;;;0.07;100.00;103188.31;5272828;28;20037;-80
2023/01/22 11:29:39;;;;;;;13.00;11.27;;;;;;;0.17;100.00;103195.41;5273240;28;20023;-78
2023/01/22 11:32:31;;;;;;;16.13;11.03;;;;;;;0.20;100.00;103187.75;5266684;28;20375;-75
2023/01/22 11:35:15;;;;;;;14.50;11.97;;;;;;;0.25;100.00;103187.84;5271196;28;20033;-71
2023/01/22 11:37:52;;;;;;;19.77;11.73;;;;;;;0.10;100.00;103184.09;5272474;28;20090;-80
2023/01/22 11:40:27;;;;;;;16.13;11.90;;;;;;;0.20;100.00;103177.44;5270135;28;20283;-86
2023/01/22 11:43:19;;;;;;;13.73;11.30;;;;;;;0.27;100.00;103169.81;5273521;28;20032;-76
2023/01/22 11:46:12;;;;;;;18.70;13.13;;;;;;;0.29;100.00;103174.19;5270302;28;20036;-81
2023/01/22 11:48:59;;;;;;;16.97;12.53;;;;;;;0.28;100.00;103175.00;5273334;28;20055;-81
2023/01/22 11:51:33;;;;;;;14.77;12.57;;;;;;;0.21;100.00;103165.44;5271404;28;20104;-71
2023/01/22 11:54:16;;;;;;;17.40;12.75;;;;;;;0.29;100.00;103173.31;5262981;28;20056;-72
2023/01/22 11:57:09;;;;;;;17.50;13.10;;;;;;;0.18;100.00;103171.38;5264087;28;20024;-69
2023/01/22 11:59:47;;;;;;;21.10;14.17;;;;;;;0.11;100.00;103164.34;5265084;28;20059;-70
2023/01/22 12:02:42;;;;;;;18.03;13.30;;;;;;;0.22;100.00;103162.00;5264260;28;20475;-70
2023/01/22 12:05:30;;;;;;;14.60;12.35;;;;;;;0.30;100.00;103164.72;5262841;28;20043;-72
2023/01/22 12:08:13;;;;;;;16.03;11.60;;;;;;;0.32;100.00;103158.78;5262831;28;20055;-71
2023/01/22 12:11:00;;;;;;;15.90;11.87;;;;;;;0.22;100.00;103137.09;5261649;28;20074;-70
2023/01/22 12:14:15;;;;;;;14.07;12.00;;;;;;;0.41;100.00;103152.94;5262752;28;20048;-70
2023/01/22 12:16:49;;;;;;;14.17;11.60;;;;;;;0.39;100.00;103149.47;5251940;28;20075;-71
2023/01/22 12:19:42;;;;;;;16.05;11.82;;;;;;;0.38;100.00;103140.00;5263429;28;20040;-69
2023/01/22 12:22:28;;;;;;;13.70;11.63;;;;;;;0.43;100.00;103146.13;5263125;28;20040;-70
2023/01/22 12:25:26;;;;;;;17.67;12.90;;;;;;;0.44;100.00;103147.84;5263277;28;20140;-69
2023/01/22 12:28:24;;;;;;;16.77;12.60;;;;;;;0.42;100.00;103156.41;5239275;28;20037;-69
2023/01/22 12:31:01;;;;;;;15.33;11.93;;;;;;;0.43;100.00;103146.13;5278577;28;20078;-69
2023/01/22 12:33:38;;;;;;;18.37;12.00;;;;;;;0.37;100.00;103143.41;5264512;28;20486;-69
2023/01/22 12:36:13;;;;;;;15.53;11.23;;;;;;;0.38;100.00;103142.56;5261057;28;21276;-69
2023/01/22 12:38:59;;;;;;;16.97;12.03;;;;;;;0.45;100.00;103148.72;5262883;28;20036;-69
2023/01/22 12:41:39;;;;;;;17.20;10.97;;;;;;;0.40;100.00;103151.19;5262534;28;20107;-71
2023/01/22 12:44:16;;;;;;;12.83;11.00;;;;;;;0.51;100.00;103140.25;5260623;28;20032;-71
2023/01/22 12:47:12;;;;;;;12.87;10.80;;;;;;;0.50;100.00;103152.25;5260815;28;20036;-70
2023/01/22 12:49:46;;;;;;;14.50;11.70;;;;;;;0.46;100.00;103156.47;5261711;28;20033;-71
2023/01/22 12:52:27;;;;;;;14.97;11.13;;;;;;;0.46;100.00;103161.63;5262815;28;20036;-69
2023/01/22 12:55:00;;;;;;;16.80;11.83;;;;;;;0.45;100.00;103154.75;5264002;28;20029;-71
2023/01/22 12:57:40;;;;;;;14.97;11.20;;;;;;;0.48;100.00;103165.13;5263912;28;20024;-69
2023/01/22 13:00:24;;;;;;;15.47;11.20;;;;;;;0.50;100.00;103162.56;5262513;28;20780;-70
2023/01/22 13:02:55;;;;;;;14.13;12.53;;;;;;;0.48;100.00;103170.28;5262748;28;20033;-70
2023/01/22 13:05:30;;;;;;;13.93;12.13;;;;;;;0.43;100.00;103171.03;5262886;28;20086;-70
2023/01/22 13:08:23;;;;;;;18.40;12.35;;;;;;;0.44;100.00;103158.16;5263362;28;20502;-71
2023/01/22 13:10:57;;;;;;;15.23;10.60;;;;;;;0.47;100.00;103168.53;5255602;28;20129;-69
2023/01/22 13:14:01;;;;;;;14.15;12.23;;;;;;;0.57;100.00;103171.31;5260819;28;20032;-70
2023/01/22 13:17:33;;;;;;;14.73;11.27;;;;;;;-150.27;100.00;61272.81;5249513;28;20056;-70
2023/01/22 13:21:13;;;;;;;14.73;12.17;;;;;;;-150.27;100.00;61272.81;5261953;28;20044;-71
2023/01/22 13:24:48;;;;;;;13.70;11.00;;;;;;;-150.27;100.00;61272.81;5261036;28;20043;-71
2023/01/22 13:28:20;;;;;;;18.27;13.30;;;;;;;-150.27;100.00;61272.81;5260222;28;20047;-69
2023/01/22 13:32:03;;;;;;;20.50;12.63;;;;;;;-150.27;100.00;61272.81;5262195;28;20102;-71
2023/01/22 13:35:39;;;;;;;19.77;14.27;;;;;;;-150.27;100.00;61272.81;5262814;28;20581;-70
2023/01/22 13:39:25;;;;;;;15.57;12.23;;;;;;;-150.27;100.00;61272.81;5262680;28;20086;-71